• Join FlightAware (Why Join?)
  • Login
  • US Flag 
11:02PM EDT


 

Airport Tracker/Info


-or-


 

Live Flight TrackerFlight Track Log ✈ UAL3740 ✈ 28-Apr-2013 ✈ KPVD - KIAD

Flight Track Log - Related Links

Times and Time Zones

All times are in EDT time to prevent confusion due to time zone crossing. See the UAL3740 flight status page for this flight to view local times or setup timezone preferences in your user account.

Time Position Orientation Groundspeed Altitude Reporting Facility
EDT Latitude Longitude Course Direction KTS MPH feet Rate Location/Type
10:08AM 41.7006 -71.5086 264° West 188 216 2,800  Level Boston Center
10:09AM 41.7094 -71.6031 277° West 225 259 5,400 2,700 Climbing Boston Center
10:10AM 41.7600 -71.6664 317° Northwest 249 287 8,200 2,700 Climbing Boston Center
10:11AM 41.8167 -71.7158 327° Northwest 267 307 10,900 2,640 Climbing Boston Center
10:12AM 41.8878 -71.7819 325° Northwest 277 319 13,500 2,400 Climbing Boston Center
10:13AM 41.9361 -71.8511 313° West 284 327 15,700 2,280 Climbing Boston Center
10:14AM 41.9681 -71.9711 290° West 295 339 18,100 1,800 Climbing Boston Center
10:15AM 41.9956 -72.0742 290° West 309 356 19,300 1,080 Climbing Boston Center
10:16AM 42.0292 -72.1969 290° West 333 383 20,300 960 Climbing Boston Center
10:17AM 42.0628 -72.3283 289° West 360 414 21,300 960 Climbing Boston Center
10:18AM 42.0981 -72.4708 288° West 386 444 22,300 1,200 Climbing Boston Center
10:19AM 42.1356 -72.6108 290° West 398 458 23,700 1,440 Climbing Boston Center
10:20AM 42.1331 -72.7592 269° West 398 458 25,200 1,140 Climbing Boston Center
10:21AM 42.0681 -72.8792 234° Southwest 369 425 26,000 360 Climbing Boston Center
10:22AM 41.9778 -73.0350 232° Southwest 412 474 26,000 300 Level Boston Center
10:23AM 41.8936 -73.1653 229° Southwest 445 512 26,700 960 Climbing Boston Center
10:24AM 41.8094 -73.2894 228° Southwest 457 526 28,000 600 Climbing Boston Center
10:25AM 41.7272 -73.4108 228° Southwest 457 526 28,000  Level Boston Center
10:26AM 41.6447 -73.5319 228° Southwest 452 520 28,000  Level Boston Center
10:28AM 41.4644 -73.7969 228° Southwest 429 494 28,000  Level New York Center
10:29AM 41.3842 -73.9150 228° Southwest 434 499 28,000  Level New York Center
10:30AM 41.3019 -74.0328 227° Southwest 434 499 28,000  Level New York Center
10:31AM 41.2194 -74.1472 226° Southwest 434 499 28,000  Level New York Center
10:32AM 41.1369 -74.2644 227° Southwest 439 505 28,000  Level New York Center
10:33AM 41.0544 -74.3783 226° Southwest 439 505 28,000  Level New York Center
10:34AM 40.9717 -74.4922 226° Southwest 439 505 28,000  Level New York Center
10:35AM 40.8992 -74.6117 231° Southwest 434 499 28,000  Level New York Center
10:36AM 40.8386 -74.7428 239° Southwest 429 494 28,000 -240 Level New York Center
10:37AM 40.7800 -74.8736 239° Southwest 424 488 27,600 -960 Descending New York Center
10:38AM 40.7189 -75.0122 240° Southwest 429 494 26,100 -1,320 Descending New York Center
10:39AM 40.6578 -75.1453 239° Southwest 436 502 25,000 -600 Descending New York Center
10:40AM 40.5964 -75.2781 239° Southwest 436 502 25,000 -540 Level New York Center
10:41AM 40.5394 -75.4025 239° Southwest 430 495 24,000 -1,320 Descending New York Center
10:42AM 40.4869 -75.5164 239° Southwest 413 475 22,500 -1,500 Descending New York Center
10:43AM 40.4322 -75.6353 239° Southwest 402 463 21,000 -1,260 Descending New York Center
10:44AM 40.3772 -75.7542 239° Southwest 395 455 20,000 -540 Descending New York Center
10:45AM 40.3222 -75.8700 238° Southwest 390 449 20,000  Level New York Center
10:46AM 40.2606 -75.9933 237° Southwest 397 457 20,000 -120 Level New York Center
10:47AM 40.2008 -76.1192 238° Southwest 402 463 19,800 -1,020 Descending New York Center
10:48AM 40.1428 -76.2478 239° Southwest 390 449 18,000 -1,500 Descending New York Center
10:49AM 40.0872 -76.3628 238° Southwest 375 432 16,900 -1,020 Descending New York Center
10:51AM 39.9833 -76.5833 238° Southwest 328 377 15,000 -660 Descending Potomac TRACON
10:52AM 39.9500 -76.6833 247° West 341 392 15,000  Level Potomac TRACON
10:53AM 39.9333 -76.8000 259° West 344 396 15,000  Level Potomac TRACON
10:54AM 39.9333 -76.9167 270° West 339 390 15,000  Level Potomac TRACON
10:55AM 39.9167 -77.0167 258° West 299 344 15,000  Level Potomac TRACON
10:56AM 39.8500 -77.0833 218° Southwest 297 342 15,000 -960 Level Potomac TRACON
10:57AM 39.7833 -77.1500 218° Southwest 286 329 13,100 -1,980 Descending Potomac TRACON
10:58AM 39.7167 -77.2000 210° Southwest 276 318 11,100 -2,160 Descending Potomac TRACON
10:59AM 39.6667 -77.2500 218° Southwest 271 312 9,000 -2,040 Descending Potomac TRACON
11:00AM 39.6333 -77.3333 243° Southwest 265 305 7,100 -1,020 Descending Potomac TRACON
11:01AM 39.5667 -77.3833 210° Southwest 253 291 7,000 -240 Descending Potomac TRACON
11:02AM 39.5000 -77.4167 201° Southwest 250 288 6,700 -1,080 Descending Potomac TRACON
11:03AM 39.4333 -77.4333 191° South 242 278 4,900 -1,440 Descending Potomac TRACON
11:04AM 39.3833 -77.4333 180° South 235 270 4,000 -480 Descending Potomac TRACON
11:05AM 39.3167 -77.4333 180° South 238 274 4,000  Level Potomac TRACON
11:06AM 39.2500 -77.4333 180° South 235 270 4,000  Level Potomac TRACON
11:07AM 39.2000 -77.4333 180° South 177 204 4,000 -240 Level Potomac TRACON
11:08AM 39.1500 -77.4333 180° South 169 194 3,500 -480 Descending Potomac TRACON
11:09AM 39.1000 -77.4333 180° South 168 193 3,000 -660 Descending Potomac TRACON
11:10AM 39.0500 -77.4333 180° South 165 190 2,300 -840 Descending Potomac TRACON
11:11AM 39.0000 -77.4333 180° South 147 169 1,400 -780 Descending Potomac TRACON
11:12AM 38.9667 -77.4333 180° South 131 151 700 -720 Descending Potomac TRACON
11:14AM 38.9474 -77.4599 180° South  Level Estimated
11:21AM 38.9474 -77.4599 349° North  Level Estimated